Time;durP1;ratioP1;P1;durP2;ratioP2;P2;SDS_P1;SDS_P2;PMS_P1;PMS_P2;Temp;Humidity;BMP_temperature;BMP_pressure;BME280_temperature;BME280_humidity;BME280_pressure;Samples;Min_cycle;Max_cycle;Signal;HPM_P1;HPM_P2
2023/09/28 00:02:53;;;;;;;21.45;16.10;;;18.10;99.90;;;;;;5081996;28;20120;-79
2023/09/28 00:05:21;;;;;;;16.80;15.02;;;18.00;99.90;;;;;;5072788;28;20131;-79
2023/09/28 00:07:49;;;;;;;19.80;16.05;;;18.00;99.90;;;;;;5073027;28;20549;-79
2023/09/28 00:10:16;;;;;;;17.52;15.70;;;18.00;99.90;;;;;;5072818;28;20048;-79
2023/09/28 00:12:50;;;;;;;17.27;14.93;;;18.00;99.90;;;;;;5072734;28;20060;-79
2023/09/28 00:15:17;;;;;;;16.60;14.43;;;18.00;99.90;;;;;;5072936;28;20121;-79
2023/09/28 00:17:44;;;;;;;18.70;14.98;;;18.00;99.90;;;;;;5074137;28;20037;-79
2023/09/28 00:20:13;;;;;;;18.65;14.85;;;18.00;99.90;;;;;;5072907;28;20143;-79
2023/09/28 00:22:41;;;;;;;16.52;13.60;;;17.90;99.90;;;;;;5074097;28;20514;-79
2023/09/28 00:25:11;;;;;;;18.30;15.05;;;18.00;99.90;;;;;;5073718;28;20364;-79
2023/09/28 00:27:43;;;;;;;16.63;14.73;;;17.90;99.90;;;;;;5072644;28;20079;-78
2023/09/28 00:30:12;;;;;;;17.70;15.02;;;17.90;99.90;;;;;;5072130;28;20122;-79
2023/09/28 00:32:37;;;;;;;17.65;14.77;;;17.90;99.90;;;;;;5072660;28;20472;-78
2023/09/28 00:35:04;;;;;;;17.70;14.60;;;17.90;99.90;;;;;;5072688;28;20059;-79
2023/09/28 00:37:30;;;;;;;16.52;14.45;;;17.90;99.90;;;;;;5072372;28;20048;-79
2023/09/28 00:39:56;;;;;;;17.02;14.90;;;17.90;99.90;;;;;;5072415;28;20040;-79
2023/09/28 00:42:22;;;;;;;20.48;14.48;;;17.90;99.90;;;;;;5073660;28;20510;-79
2023/09/28 00:44:48;;;;;;;20.85;15.05;;;17.90;99.90;;;;;;5072153;28;20040;-79
2023/09/28 00:47:14;;;;;;;17.35;14.65;;;17.90;99.90;;;;;;5073437;28;20471;-79
2023/09/28 00:49:42;;;;;;;18.02;15.25;;;17.90;99.90;;;;;;5072115;28;20055;-79
2023/09/28 00:52:08;;;;;;;17.88;14.32;;;17.90;99.90;;;;;;5072308;28;20044;-79
2023/09/28 00:54:35;;;;;;;17.13;13.73;;;17.80;99.90;;;;;;5072313;28;20094;-78
2023/09/28 00:57:00;;;;;;;17.40;13.52;;;17.90;99.90;;;;;;5072353;28;20140;-78
2023/09/28 00:59:26;;;;;;;17.38;14.50;;;17.90;99.90;;;;;;5073481;28;20124;-79
2023/09/28 01:01:54;;;;;;;18.23;15.00;;;17.90;99.90;;;;;;5073500;28;20123;-78
2023/09/28 01:04:22;;;;;;;16.17;14.48;;;17.90;99.90;;;;;;5073460;28;20101;-78
2023/09/28 01:06:48;;;;;;;17.13;14.52;;;17.90;99.90;;;;;;5072117;28;20048;-78
2023/09/28 01:09:15;;;;;;;16.05;13.38;;;17.90;99.90;;;;;;5073301;28;20044;-79
2023/09/28 01:11:41;;;;;;;16.27;13.70;;;17.90;99.90;;;;;;5071986;28;20518;-79
2023/09/28 01:14:08;;;;;;;17.83;13.40;;;17.90;99.90;;;;;;5072072;28;20052;-79
2023/09/28 01:16:33;;;;;;;17.08;13.95;;;17.90;99.90;;;;;;5072237;28;20048;-79
2023/09/28 01:18:59;;;;;;;17.58;14.40;;;17.90;99.90;;;;;;5071713;28;20052;-79
2023/09/28 01:21:25;;;;;;;15.82;13.52;;;17.90;99.90;;;;;;5073159;28;20510;-79
2023/09/28 01:23:51;;;;;;;16.42;13.77;;;17.90;99.90;;;;;;5071899;28;20060;-79
2023/09/28 01:26:17;;;;;;;15.82;12.95;;;17.90;99.90;;;;;;5071815;28;20044;-79
2023/09/28 01:28:43;;;;;;;16.73;13.40;;;17.90;99.90;;;;;;5072027;28;20480;-79
2023/09/28 01:31:08;;;;;;;15.90;12.90;;;17.90;99.90;;;;;;5071836;28;20131;-79
2023/09/28 01:33:34;;;;;;;16.42;13.32;;;17.90;99.90;;;;;;5072125;28;20080;-79
2023/09/28 01:36:00;;;;;;;15.98;12.68;;;17.90;99.90;;;;;;5073162;28;20116;-79
2023/09/28 01:38:45;;;;;;;14.10;11.68;;;17.80;99.90;;;;;;5072409;28;20044;-78
2023/09/28 01:41:11;;;;;;;13.95;12.50;;;17.90;99.90;;;;;;5072051;28;20524;-79
2023/09/28 01:43:37;;;;;;;14.93;11.93;;;17.80;99.90;;;;;;5075939;28;20050;-79
2023/09/28 01:46:03;;;;;;;15.50;12.00;;;17.80;99.90;;;;;;5075427;28;20044;-79
2023/09/28 01:48:29;;;;;;;14.82;11.73;;;17.80;99.90;;;;;;5075545;28;20543;-79
2023/09/28 01:50:54;;;;;;;14.30;11.10;;;17.90;99.90;;;;;;5076407;28;20041;-79
2023/09/28 01:53:20;;;;;;;13.05;10.77;;;17.90;99.90;;;;;;5075301;28;20049;-79
2023/09/28 01:55:47;;;;;;;14.82;10.68;;;17.90;99.90;;;;;;5075284;28;20048;-79
2023/09/28 01:58:16;;;;;;;11.32;9.43;;;17.90;99.90;;;;;;5075269;28;20047;-79
2023/09/28 02:00:45;;;;;;;11.38;9.57;;;17.80;99.90;;;;;;5076570;28;20052;-79
2023/09/28 02:03:11;;;;;;;14.60;10.38;;;17.80;99.90;;;;;;5075102;28;20405;-79
2023/09/28 02:05:37;;;;;;;14.75;10.15;;;17.80;99.90;;;;;;5076447;28;20480;-79
2023/09/28 02:08:05;;;;;;;11.13;9.65;;;17.80;99.90;;;;;;5076324;28;20056;-79
2023/09/28 02:10:31;;;;;;;13.43;9.30;;;17.80;99.90;;;;;;5076436;28;20045;-79
2023/09/28 02:13:00;;;;;;;12.35;9.65;;;17.80;99.90;;;;;;5076378;28;20044;-79
2023/09/28 02:15:27;;;;;;;12.88;9.20;;;17.80;99.90;;;;;;5075018;28;20174;-79
2023/09/28 02:17:54;;;;;;;10.85;9.27;;;17.80;99.90;;;;;;5074544;28;20052;-79
2023/09/28 02:20:22;;;;;;;13.18;9.90;;;17.80;99.90;;;;;;5075939;28;20410;-79
2023/09/28 02:22:50;;;;;;;13.15;9.35;;;17.80;99.90;;;;;;5076194;28;20048;-78
2023/09/28 02:25:18;;;;;;;13.93;9.90;;;17.80;99.90;;;;;;5076008;28;20478;-79
2023/09/28 02:27:45;;;;;;;12.88;9.77;;;17.80;99.90;;;;;;5074762;28;20133;-79
2023/09/28 02:30:13;;;;;;;12.15;9.50;;;17.80;99.90;;;;;;5076016;28;20045;-79
2023/09/28 02:32:43;;;;;;;13.82;9.90;;;17.80;99.90;;;;;;5074824;28;20144;-79
2023/09/28 02:35:10;;;;;;;11.95;9.43;;;17.80;99.90;;;;;;5075987;28;20036;-79
2023/09/28 02:37:36;;;;;;;12.88;9.52;;;17.80;99.90;;;;;;5075918;28;20036;-79
2023/09/28 02:40:05;;;;;;;11.55;9.55;;;17.80;99.90;;;;;;5074511;28;20048;-79
2023/09/28 02:42:31;;;;;;;13.13;9.90;;;17.80;99.90;;;;;;5075851;28;20040;-79
2023/09/28 02:44:58;;;;;;;11.32;9.30;;;17.80;99.90;;;;;;5074412;28;20492;-78
2023/09/28 02:47:24;;;;;;;11.38;10.18;;;17.80;99.90;;;;;;5075714;28;20123;-78
2023/09/28 02:49:51;;;;;;;14.60;10.32;;;17.80;99.90;;;;;;5075749;28;20048;-79
2023/09/28 02:52:18;;;;;;;11.57;9.88;;;17.80;99.90;;;;;;5074281;28;20451;-78
2023/09/28 02:54:44;;;;;;;12.57;9.40;;;17.70;99.90;;;;;;5075387;28;20045;-79
2023/09/28 02:57:10;;;;;;;12.90;9.55;;;17.70;99.90;;;;;;5075501;28;20472;-79
2023/09/28 02:59:36;;;;;;;12.13;9.90;;;17.70;99.90;;;;;;5075236;28;20119;-78
2023/09/28 03:02:03;;;;;;;13.52;10.63;;;17.70;99.90;;;;;;5073999;28;20053;-78
2023/09/28 03:04:31;;;;;;;14.25;10.32;;;17.60;99.90;;;;;;5075199;28;20048;-79
2023/09/28 03:06:57;;;;;;;13.38;11.50;;;17.50;99.90;;;;;;5075236;28;20036;-78
2023/09/28 03:09:23;;;;;;;13.52;10.18;;;17.50;99.90;;;;;;5075195;28;20491;-78
2023/09/28 03:11:49;;;;;;;12.35;10.07;;;17.50;99.90;;;;;;5074784;28;20048;-78
2023/09/28 03:14:16;;;;;;;13.60;10.50;;;17.50;99.90;;;;;;5073885;28;20117;-78
2023/09/28 03:16:42;;;;;;;13.90;11.00;;;17.40;99.90;;;;;;5074124;28;20526;-78
2023/09/28 03:19:08;;;;;;;12.02;10.10;;;17.40;99.90;;;;;;5073598;28;20063;-77
2023/09/28 03:21:35;;;;;;;15.95;10.85;;;17.40;99.90;;;;;;5073927;28;20120;-78
2023/09/28 03:24:01;;;;;;;13.45;10.85;;;17.40;99.90;;;;;;5073626;28;20092;-78
2023/09/28 03:26:30;;;;;;;15.75;11.63;;;17.30;99.90;;;;;;5073865;28;20430;-78
2023/09/28 03:28:56;;;;;;;15.70;10.13;;;17.30;99.90;;;;;;5073761;28;20131;-78
2023/09/28 03:31:27;;;;;;;16.10;11.23;;;17.30;99.90;;;;;;5074811;28;20055;-78
2023/09/28 03:33:53;;;;;;;15.25;11.52;;;17.20;99.90;;;;;;5073275;28;20044;-78
2023/09/28 03:36:19;;;;;;;15.18;11.10;;;17.20;99.90;;;;;;5074789;28;20045;-78
2023/09/28 03:38:45;;;;;;;13.98;10.27;;;17.10;99.90;;;;;;5074659;28;20395;-78
2023/09/28 03:41:10;;;;;;;15.77;11.60;;;17.10;99.90;;;;;;5074573;28;20043;-77
2023/09/28 03:43:36;;;;;;;12.77;10.55;;;17.10;99.90;;;;;;5073078;28;20040;-78
2023/09/28 03:46:02;;;;;;;16.52;10.93;;;17.10;99.90;;;;;;5074515;28;20076;-78
2023/09/28 03:48:27;;;;;;;13.18;10.45;;;17.10;99.90;;;;;;5073509;28;20092;-78
2023/09/28 03:50:53;;;;;;;13.38;9.90;;;17.20;99.90;;;;;;5074364;28;20487;-77
2023/09/28 03:53:18;;;;;;;17.67;11.40;;;17.10;99.90;;;;;;5074185;28;20043;-78
2023/09/28 03:55:49;;;;;;;13.40;10.45;;;17.10;99.90;;;;;;5073045;28;20515;-77
2023/09/28 03:58:15;;;;;;;13.73;9.45;;;17.10;99.90;;;;;;5072932;28;20048;-77
2023/09/28 04:00:42;;;;;;;12.73;10.27;;;17.10;99.90;;;;;;5073124;28;20048;-77
2023/09/28 04:03:08;;;;;;;15.02;10.13;;;17.20;99.90;;;;;;5074348;28;20041;-77
2023/09/28 04:05:33;;;;;;;13.77;10.10;;;17.10;99.90;;;;;;5072276;28;20052;-77
2023/09/28 04:08:00;;;;;;;17.13;9.77;;;17.10;99.90;;;;;;5073023;28;20041;-78
2023/09/28 04:10:26;;;;;;;15.30;10.35;;;17.10;99.90;;;;;;5072879;28;20060;-77
2023/09/28 04:12:55;;;;;;;14.93;9.82;;;17.10;99.90;;;;;;5074070;28;20045;-77
2023/09/28 04:15:22;;;;;;;14.18;9.65;;;17.10;99.90;;;;;;5072891;28;20055;-77
2023/09/28 04:17:48;;;;;;;14.40;10.23;;;17.10;99.90;;;;;;5073824;28;20075;-77
2023/09/28 04:20:13;;;;;;;13.73;9.68;;;17.10;99.90;;;;;;5072446;28;20513;-78
2023/09/28 04:22:39;;;;;;;13.35;9.93;;;17.10;99.90;;;;;;5072408;28;20052;-77
2023/09/28 04:25:05;;;;;;;12.82;10.35;;;17.10;99.90;;;;;;5073610;28;20135;-77
2023/09/28 04:27:31;;;;;;;17.38;10.35;;;17.10;99.90;;;;;;5073912;28;20044;-77
2023/09/28 04:29:57;;;;;;;15.88;11.05;;;17.00;99.90;;;;;;5073970;28;20040;-77
2023/09/28 04:32:22;;;;;;;15.57;10.50;;;17.00;99.90;;;;;;5073820;28;20040;-78
2023/09/28 04:34:51;;;;;;;16.40;10.70;;;17.00;99.90;;;;;;5073815;28;20045;-77
2023/09/28 04:37:17;;;;;;;17.58;10.63;;;16.90;99.90;;;;;;5073484;28;20052;-77
2023/09/28 04:39:44;;;;;;;12.07;9.85;;;16.80;99.90;;;;;;5072480;28;20041;-78
2023/09/28 04:42:09;;;;;;;14.07;9.68;;;16.80;99.90;;;;;;5073543;28;20049;-77
2023/09/28 04:44:35;;;;;;;13.63;9.32;;;16.80;99.90;;;;;;5073547;28;20490;-78
2023/09/28 04:47:00;;;;;;;14.88;9.45;;;16.80;99.90;;;;;;5072319;28;20052;-77
2023/09/28 04:49:26;;;;;;;16.33;10.25;;;16.80;99.90;;;;;;5073582;28;20119;-77
2023/09/28 04:51:52;;;;;;;15.05;9.90;;;16.70;99.90;;;;;;5072249;28;20135;-77
2023/09/28 04:54:17;;;;;;;16.50;10.30;;;16.70;99.90;;;;;;5073380;28;20048;-77
2023/09/28 04:56:43;;;;;;;15.52;10.38;;;16.70;99.90;;;;;;5073481;28;20033;-77
2023/09/28 04:59:09;;;;;;;17.90;10.27;;;16.60;99.90;;;;;;5073356;28;20052;-77
2023/09/28 05:01:34;;;;;;;17.42;10.50;;;16.60;99.90;;;;;;5073486;28;20041;-78
2023/09/28 05:04:00;;;;;;;17.00;10.32;;;16.60;99.90;;;;;;5072266;28;20052;-77
2023/09/28 05:06:27;;;;;;;16.75;10.50;;;16.60;99.90;;;;;;5073362;28;20480;-78
2023/09/28 05:08:53;;;;;;;18.02;9.65;;;16.50;99.90;;;;;;5073440;28;20044;-77
2023/09/28 05:11:18;;;;;;;14.63;9.52;;;16.50;99.90;;;;;;5073358;28;20044;-77
2023/09/28 05:13:44;;;;;;;14.30;8.88;;;16.40;99.90;;;;;;5072013;28;20511;-78
2023/09/28 05:16:10;;;;;;;15.25;9.50;;;16.30;99.90;;;;;;5074085;28;20044;-77
2023/09/28 05:18:38;;;;;;;17.70;9.70;;;16.30;99.90;;;;;;5076039;28;20135;-77
2023/09/28 05:21:03;;;;;;;17.83;9.75;;;16.30;99.90;;;;;;5077249;28;20119;-78
2023/09/28 05:23:29;;;;;;;18.60;10.73;;;16.20;99.90;;;;;;5075903;28;20457;-78
2023/09/28 05:25:55;;;;;;;16.70;10.50;;;16.20;99.90;;;;;;5076793;28;20047;-78
2023/09/28 05:28:21;;;;;;;13.60;9.18;;;16.20;99.90;;;;;;5075483;28;20111;-78
2023/09/28 05:30:46;;;;;;;18.67;9.40;;;16.20;99.90;;;;;;5076318;28;20170;-78
2023/09/28 05:33:12;;;;;;;17.52;8.73;;;16.10;99.90;;;;;;5076401;28;20488;-78
2023/09/28 05:35:38;;;;;;;17.90;8.60;;;16.10;99.90;;;;;;5076766;28;20049;-78
2023/09/28 05:38:03;;;;;;;18.15;7.25;;;16.10;99.90;;;;;;5076703;28;20037;-78
2023/09/28 05:40:29;;;;;;;16.77;7.57;;;16.10;99.90;;;;;;5075721;28;20102;-78
2023/09/28 05:42:55;;;;;;;18.42;6.68;;;16.10;99.90;;;;;;5075745;28;20044;-78
2023/09/28 05:45:20;;;;;;;23.70;6.93;;;16.10;99.90;;;;;;5075550;28;20052;-78
2023/09/28 05:47:47;;;;;;;19.30;5.65;;;16.00;99.90;;;;;;5076742;28;20049;-78
2023/09/28 05:50:13;;;;;;;19.65;5.38;;;16.00;99.90;;;;;;5075431;28;20097;-78
2023/09/28 05:52:39;;;;;;;17.35;4.80;;;16.00;99.90;;;;;;5075227;28;20442;-78
2023/09/28 05:55:05;;;;;;;18.33;5.30;;;16.00;99.90;;;;;;5076485;28;20506;-78
2023/09/28 05:57:31;;;;;;;19.88;4.85;;;16.00;99.90;;;;;;5075187;28;20044;-78
2023/09/28 05:59:56;;;;;;;20.25;4.85;;;16.00;99.90;;;;;;5075295;28;20044;-78
2023/09/28 06:02:22;;;;;;;18.85;4.80;;;16.10;99.90;;;;;;5076194;28;20131;-78
2023/09/28 06:04:48;;;;;;;19.98;5.30;;;16.10;99.90;;;;;;5074897;28;20049;-78
2023/09/28 06:07:14;;;;;;;20.45;5.32;;;16.10;99.90;;;;;;5074959;28;20598;-78
2023/09/28 06:09:40;;;;;;;18.98;4.50;;;16.10;99.90;;;;;;5076417;28;20045;-78
2023/09/28 06:12:09;;;;;;;19.92;4.22;;;16.10;99.90;;;;;;5075145;28;20167;-78
2023/09/28 06:14:35;;;;;;;15.35;3.83;;;16.10;99.90;;;;;;5076132;28;20056;-78
2023/09/28 06:17:01;;;;;;;22.50;4.05;;;16.10;99.90;;;;;;5074595;28;20036;-78
2023/09/28 06:19:29;;;;;;;19.08;3.53;;;16.10;99.90;;;;;;5074605;28;20063;-78
2023/09/28 06:21:55;;;;;;;22.30;4.10;;;16.00;99.90;;;;;;5076074;28;20103;-78
2023/09/28 06:24:25;;;;;;;22.05;3.67;;;16.10;99.90;;;;;;5074653;28;20512;-78
2023/09/28 06:26:53;;;;;;;18.27;3.97;;;16.10;99.90;;;;;;5076010;28;20357;-78
2023/09/28 06:29:19;;;;;;;22.70;3.53;;;16.10;99.90;;;;;;5075371;28;20044;-78
2023/09/28 06:31:44;;;;;;;20.10;4.45;;;16.10;99.90;;;;;;5074484;28;20056;-78
2023/09/28 06:34:10;;;;;;;25.15;4.45;;;16.10;99.90;;;;;;5074318;28;20049;-79
2023/09/28 06:36:36;;;;;;;25.63;4.40;;;16.20;99.90;;;;;;5075846;28;20084;-79
2023/09/28 06:39:03;;;;;;;24.00;4.13;;;16.20;99.90;;;;;;5074428;28;20059;-78
2023/09/28 06:41:30;;;;;;;18.80;4.05;;;16.20;99.90;;;;;;5074718;28;20416;-78
2023/09/28 06:43:56;;;;;;;28.02;4.53;;;16.20;99.90;;;;;;5075535;28;20044;-78
2023/09/28 06:46:21;;;;;;;29.52;4.38;;;16.30;99.90;;;;;;5074056;28;20045;-78
2023/09/28 06:48:49;;;;;;;25.42;4.88;;;16.30;99.90;;;;;;5075670;28;20119;-79
2023/09/28 06:51:15;;;;;;;28.90;4.45;;;16.30;99.90;;;;;;5073944;28;20049;-78
2023/09/28 06:53:41;;;;;;;27.52;4.22;;;16.30;99.90;;;;;;5074070;28;20072;-78
2023/09/28 06:56:07;;;;;;;24.38;4.10;;;16.30;99.90;;;;;;5075328;28;20083;-78
2023/09/28 06:58:32;;;;;;;23.23;4.55;;;16.30;99.90;;;;;;5074166;28;20052;-78
2023/09/28 07:00:58;;;;;;;23.45;3.92;;;16.40;99.90;;;;;;5074068;28;20451;-78
2023/09/28 07:03:24;;;;;;;19.50;4.07;;;16.50;99.90;;;;;;5073816;28;20048;-79
2023/09/28 07:05:49;;;;;;;26.15;3.70;;;16.60;99.90;;;;;;5075111;28;20045;-77
2023/09/28 07:08:15;;;;;;;24.20;4.03;;;16.60;99.90;;;;;;5075004;28;20039;-79
2023/09/28 07:10:44;;;;;;;21.17;3.67;;;16.70;99.90;;;;;;5074211;28;20049;-77
2023/09/28 07:13:10;;;;;;;23.95;4.30;;;16.80;99.90;;;;;;5073980;28;20496;-78
2023/09/28 07:15:36;;;;;;;22.35;4.40;;;16.80;99.90;;;;;;5073676;28;20056;-78
2023/09/28 07:18:04;;;;;;;22.63;3.40;;;16.80;99.90;;;;;;5073442;28;20048;-78
2023/09/28 07:20:31;;;;;;;24.85;3.92;;;16.80;99.90;;;;;;5075458;28;20049;-76
2023/09/28 07:22:57;;;;;;;24.77;4.45;;;16.90;99.90;;;;;;5074736;28;20373;-78
2023/09/28 07:25:25;;;;;;;21.02;4.75;;;16.90;99.90;;;;;;5074838;28;20127;-77
2023/09/28 07:27:52;;;;;;;19.60;4.22;;;16.80;99.90;;;;;;5073497;28;20049;-77
2023/09/28 07:30:22;;;;;;;25.50;5.30;;;16.80;99.90;;;;;;5073450;28;20088;-77
2023/09/28 07:32:49;;;;;;;25.05;6.18;;;16.90;99.90;;;;;;5074953;28;20048;-76
2023/09/28 07:35:16;;;;;;;23.40;4.20;;;16.90;99.90;;;;;;5073328;28;20045;-77
2023/09/28 07:37:42;;;;;;;29.58;4.22;;;16.90;99.90;;;;;;5073220;28;20084;-76
2023/09/28 07:40:12;;;;;;;24.70;4.93;;;16.90;99.90;;;;;;5074898;28;20045;-76
2023/09/28 07:42:43;;;;;;;20.38;4.47;;;16.90;99.90;;;;;;5082486;28;20082;-77
2023/09/28 07:45:11;;;;;;;30.38;3.97;;;16.90;99.90;;;;;;5076878;28;20094;-78
2023/09/28 07:47:38;;;;;;;23.88;4.18;;;16.90;99.90;;;;;;5074465;28;20097;-77
2023/09/28 07:50:05;;;;;;;24.15;4.20;;;17.00;99.90;;;;;;5074332;28;20033;-78
2023/09/28 07:52:30;;;;;;;23.60;4.68;;;17.00;99.90;;;;;;5073236;28;20048;-78
2023/09/28 07:54:56;;;;;;;23.35;3.90;;;17.00;99.90;;;;;;5072441;28;20086;-78
2023/09/28 07:57:22;;;;;;;24.67;4.38;;;17.00;99.90;;;;;;5071442;28;20101;-78
2023/09/28 07:59:48;;;;;;;22.85;5.35;;;17.00;99.90;;;;;;5074391;28;20040;-78
2023/09/28 08:02:14;;;;;;;24.42;4.13;;;17.00;99.90;;;;;;5073917;28;20044;-78
2023/09/28 08:04:40;;;;;;;25.55;4.47;;;17.10;99.90;;;;;;5072601;28;20084;-77
2023/09/28 08:07:06;;;;;;;27.58;4.05;;;17.10;99.90;;;;;;5072594;28;20052;-78
2023/09/28 08:09:32;;;;;;;29.80;4.45;;;17.00;99.90;;;;;;5072917;28;20479;-78
2023/09/28 08:11:58;;;;;;;25.15;4.10;;;17.00;99.90;;;;;;5073233;28;20044;-77
2023/09/28 08:14:24;;;;;;;21.80;3.83;;;17.10;99.90;;;;;;5073448;28;20051;-78
2023/09/28 08:16:50;;;;;;;30.52;4.60;;;17.10;99.90;;;;;;5074025;28;20037;-77
2023/09/28 08:19:16;;;;;;;26.45;4.63;;;17.10;99.90;;;;;;5073592;28;20504;-76
2023/09/28 08:21:43;;;;;;;28.48;4.28;;;17.10;99.90;;;;;;5073843;28;20047;-76
2023/09/28 08:24:10;;;;;;;22.33;4.53;;;17.20;99.90;;;;;;5072356;28;20063;-77
2023/09/28 08:26:38;;;;;;;29.40;4.47;;;17.30;99.90;;;;;;5072431;28;20048;-77
2023/09/28 08:29:04;;;;;;;20.23;3.92;;;17.30;99.90;;;;;;5072476;28;20053;-76
2023/09/28 08:31:33;;;;;;;24.20;4.20;;;17.40;99.90;;;;;;5072493;28;20376;-77
2023/09/28 08:33:59;;;;;;;21.95;4.88;;;17.40;99.90;;;;;;5073730;28;20051;-78
2023/09/28 08:36:26;;;;;;;26.50;4.10;;;17.50;99.90;;;;;;5073832;28;20041;-77
2023/09/28 08:38:51;;;;;;;27.27;4.03;;;17.50;99.90;;;;;;5072349;28;20495;-77
2023/09/28 08:41:48;;;;;;;25.15;4.13;;;17.60;99.90;;;;;;5075547;28;20048;-77
2023/09/28 08:44:14;;;;;;;30.70;4.05;;;17.60;99.90;;;;;;5073275;28;20036;-78
2023/09/28 08:46:40;;;;;;;20.92;4.90;;;17.60;99.90;;;;;;5073669;28;20392;-77
2023/09/28 08:49:07;;;;;;;27.02;4.80;;;17.60;99.90;;;;;;5073360;28;20089;-78
2023/09/28 08:51:38;;;;;;;25.92;5.07;;;17.60;99.90;;;;;;5073181;28;20114;-77
2023/09/28 08:54:05;;;;;;;21.63;4.63;;;17.60;99.90;;;;;;5072199;28;20045;-76
2023/09/28 08:56:52;;;;;;;22.20;3.40;;;17.60;99.90;;;;;;5073421;28;20111;-76
2023/09/28 08:59:19;;;;;;;24.15;4.07;;;17.60;99.90;;;;;;5073305;28;20495;-76
2023/09/28 09:01:47;;;;;;;24.15;4.88;;;17.60;99.90;;;;;;5074308;28;20040;-77
2023/09/28 09:04:16;;;;;;;20.63;4.43;;;17.70;99.90;;;;;;5092176;28;20055;-78
2023/09/28 09:06:42;;;;;;;25.00;5.43;;;17.60;99.90;;;;;;5093590;28;20037;-78
2023/09/28 09:09:13;;;;;;;22.67;3.80;;;17.70;99.90;;;;;;5092397;28;20105;-78
2023/09/28 09:11:50;;;;;;;21.52;4.07;;;17.60;99.90;;;;;;5092132;28;20507;-78
2023/09/28 09:14:15;;;;;;;24.60;5.53;;;17.60;99.90;;;;;;5092100;28;20086;-77
2023/09/28 09:16:41;;;;;;;25.38;4.13;;;17.60;99.90;;;;;;5093583;28;20121;-77
2023/09/28 09:19:07;;;;;;;22.08;3.53;;;17.60;99.90;;;;;;5093093;28;20127;-78
2023/09/28 09:21:44;;;;;;;21.42;4.22;;;17.50;99.90;;;;;;5093288;28;20083;-78
2023/09/28 09:24:13;;;;;;;28.83;4.18;;;17.50;99.90;;;;;;5092005;28;20114;-78
2023/09/28 09:26:47;;;;;;;25.27;3.90;;;17.60;99.90;;;;;;5091879;28;20048;-78
2023/09/28 09:29:15;;;;;;;20.50;4.22;;;17.60;99.90;;;;;;5092216;28;20518;-78
2023/09/28 09:31:42;;;;;;;25.83;3.90;;;17.60;99.90;;;;;;5093418;28;20055;-78
2023/09/28 09:34:17;;;;;;;24.58;3.95;;;17.70;99.90;;;;;;5093387;28;20035;-78
2023/09/28 09:36:42;;;;;;;20.55;3.80;;;17.70;99.90;;;;;;5091969;28;20098;-78
2023/09/28 09:39:27;;;;;;;22.70;4.80;;;17.80;99.90;;;;;;5093286;28;20028;-78
2023/09/28 09:41:54;;;;;;;25.77;4.22;;;17.90;99.90;;;;;;5091865;28;20044;-78
2023/09/28 09:44:21;;;;;;;18.05;3.63;;;18.00;99.90;;;;;;5093284;28;20047;-78
2023/09/28 09:46:49;;;;;;;22.52;4.05;;;18.10;99.90;;;;;;5092333;28;20131;-78
2023/09/28 09:49:16;;;;;;;24.50;3.65;;;18.10;99.90;;;;;;5093286;28;20044;-78
2023/09/28 09:51:49;;;;;;;20.73;3.80;;;18.10;99.90;;;;;;5093063;28;20040;-78
2023/09/28 09:54:16;;;;;;;22.55;3.78;;;18.10;99.90;;;;;;5091901;28;20048;-78
2023/09/28 09:56:46;;;;;;;25.33;4.40;;;18.10;99.90;;;;;;5093076;28;20044;-78
2023/09/28 09:59:17;;;;;;;25.67;3.55;;;18.20;99.90;;;;;;5091984;28;20051;-78
2023/09/28 10:01:53;;;;;;;22.73;4.15;;;18.30;99.90;;;;;;5091763;28;20483;-78
2023/09/28 10:04:20;;;;;;;21.08;3.53;;;18.30;99.90;;;;;;5095145;28;20499;-78
2023/09/28 10:06:48;;;;;;;27.25;4.28;;;18.30;99.90;;;;;;5095253;28;20092;-78
2023/09/28 10:09:18;;;;;;;19.60;3.47;;;18.30;99.90;;;;;;5095459;28;20047;-78
2023/09/28 10:11:47;;;;;;;20.15;3.38;;;18.40;99.90;;;;;;5096890;28;20036;-78
2023/09/28 10:14:15;;;;;;;26.67;3.90;;;18.40;99.90;;;;;;5095733;28;20094;-78
2023/09/28 10:16:42;;;;;;;24.70;3.95;;;18.40;99.90;;;;;;5096658;28;20044;-78
2023/09/28 10:19:09;;;;;;;32.38;4.88;;;18.50;99.90;;;;;;5094946;28;20058;-78
2023/09/28 10:21:37;;;;;;;22.67;4.13;;;18.50;99.90;;;;;;5095053;28;20044;-78
2023/09/28 10:24:14;;;;;;;18.48;3.60;;;18.50;99.90;;;;;;5094974;28;20051;-78
2023/09/28 10:26:48;;;;;;;23.88;3.97;;;18.60;99.90;;;;;;5095265;28;20044;-78
2023/09/28 10:29:19;;;;;;;21.98;4.45;;;18.60;99.90;;;;;;5094991;28;20054;-78
2023/09/28 10:31:46;;;;;;;18.80;4.38;;;18.60;99.90;;;;;;5096313;28;20051;-77
2023/09/28 10:34:21;;;;;;;17.73;3.95;;;18.60;99.90;;;;;;5095063;28;20055;-78
2023/09/28 10:37:10;;;;;;;18.27;3.38;;;18.50;99.90;;;;;;5096033;28;20402;-78
2023/09/28 10:39:37;;;;;;;17.33;3.13;;;18.60;99.90;;;;;;5094998;28;20056;-78
2023/09/28 10:42:14;;;;;;;17.58;3.35;;;18.60;99.90;;;;;;5094697;28;20040;-78
2023/09/28 10:44:55;;;;;;;17.33;3.25;;;18.50;99.90;;;;;;5094693;28;20051;-77
2023/09/28 10:47:21;;;;;;;17.00;3.78;;;18.50;99.90;;;;;;5094639;28;20055;-78
2023/09/28 10:49:49;;;;;;;19.95;3.28;;;18.50;99.90;;;;;;5094434;28;20399;-78
2023/09/28 10:52:16;;;;;;;22.83;4.15;;;18.40;99.90;;;;;;5094311;28;20051;-78
2023/09/28 10:54:44;;;;;;;17.35;3.58;;;18.40;99.90;;;;;;5095936;28;20068;-78
2023/09/28 10:57:10;;;;;;;22.70;3.17;;;18.30;99.90;;;;;;5095788;28;20043;-78
2023/09/28 10:59:42;;;;;;;20.38;4.50;;;18.30;99.90;;;;;;5094503;28;20048;-78
2023/09/28 11:02:08;;;;;;;22.15;3.90;;;18.30;99.90;;;;;;5095777;28;20072;-78
2023/09/28 11:04:39;;;;;;;17.35;3.03;;;18.20;99.90;;;;;;5094274;28;20495;-78
2023/09/28 11:07:06;;;;;;;20.05;3.25;;;18.20;99.90;;;;;;5095412;28;20044;-78
2023/09/28 11:09:31;;;;;;;20.67;4.22;;;18.30;99.90;;;;;;5095403;28;20488;-78
2023/09/28 11:11:57;;;;;;;18.98;3.30;;;18.30;99.90;;;;;;5095385;28;20051;-78
2023/09/28 11:14:26;;;;;;;19.13;3.03;;;18.30;99.90;;;;;;5095414;28;20406;-78
2023/09/28 11:16:52;;;;;;;22.08;3.80;;;18.30;99.90;;;;;;5094319;28;20069;-78
2023/09/28 11:19:19;;;;;;;15.40;3.08;;;18.40;99.90;;;;;;5093774;28;20105;-78
2023/09/28 11:21:45;;;;;;;20.88;3.15;;;18.50;99.90;;;;;;5095470;28;20052;-78
2023/09/28 11:24:13;;;;;;;15.15;3.05;;;18.50;99.90;;;;;;5095276;28;20123;-78
2023/09/28 11:26:39;;;;;;;15.10;2.67;;;18.60;99.90;;;;;;5095430;28;20033;-78
2023/09/28 11:29:05;;;;;;;22.70;3.00;;;18.60;99.90;;;;;;5095108;28;20094;-78
2023/09/28 11:31:35;;;;;;;15.07;3.05;;;18.60;99.90;;;;;;5095192;28;20540;-78
2023/09/28 11:34:02;;;;;;;15.23;2.80;;;18.60;99.90;;;;;;5093569;28;20072;-77
2023/09/28 11:36:29;;;;;;;14.40;2.88;;;18.60;99.90;;;;;;5093853;28;20462;-78
2023/09/28 11:38:55;;;;;;;21.80;3.72;;;18.50;99.90;;;;;;5093568;28;20476;-78
2023/09/28 11:41:23;;;;;;;18.90;4.50;;;18.50;99.90;;;;;;5094803;28;20093;-78
2023/09/28 11:43:52;;;;;;;19.33;3.13;;;18.60;99.90;;;;;;5093466;28;20119;-78
2023/09/28 11:46:24;;;;;;;17.23;3.30;;;18.60;99.90;;;;;;5093396;28;20056;-77
2023/09/28 11:49:04;;;;;;;15.90;2.97;;;18.60;99.90;;;;;;5093684;28;20056;-78
2023/09/28 11:51:36;;;;;;;13.40;1.90;;;18.60;99.90;;;;;;5094796;28;20223;-77
2023/09/28 11:54:07;;;;;;;13.10;2.65;;;18.60;99.90;;;;;;5093566;28;20093;-78
2023/09/28 11:56:33;;;;;;;13.43;2.83;;;18.50;99.90;;;;;;5094560;28;20055;-78
2023/09/28 11:58:59;;;;;;;16.70;3.08;;;18.40;99.90;;;;;;5094465;28;20044;-78
2023/09/28 12:01:25;;;;;;;19.02;2.60;;;18.50;99.90;;;;;;5093399;28;20059;-78
2023/09/28 12:03:51;;;;;;;16.52;2.38;;;18.50;99.90;;;;;;5093026;28;20403;-78
2023/09/28 12:06:18;;;;;;;18.02;3.08;;;18.50;99.90;;;;;;5093319;28;20104;-78
2023/09/28 12:08:44;;;;;;;17.17;3.95;;;18.60;99.90;;;;;;5094569;28;20047;-78
2023/09/28 12:11:10;;;;;;;18.05;3.53;;;18.60;99.90;;;;;;5094395;28;20052;-78
2023/09/28 12:13:39;;;;;;;18.05;3.20;;;18.70;99.90;;;;;;5092813;28;20043;-78
2023/09/28 12:16:08;;;;;;;13.73;3.17;;;18.60;99.90;;;;;;5094142;28;20490;-78
2023/09/28 12:18:34;;;;;;;14.57;2.58;;;18.70;99.90;;;;;;5093941;28;20085;-78
2023/09/28 12:21:02;;;;;;;19.73;3.05;;;18.70;99.90;;;;;;5094199;28;20052;-78
2023/09/28 12:23:28;;;;;;;14.95;2.95;;;18.70;99.90;;;;;;5092683;28;20055;-78
2023/09/28 12:25:56;;;;;;;18.17;3.88;;;18.80;99.90;;;;;;5092361;28;20048;-78
2023/09/28 12:28:22;;;;;;;16.25;2.72;;;18.70;99.90;;;;;;5093862;28;20048;-78
2023/09/28 12:30:48;;;;;;;18.40;3.28;;;18.60;99.90;;;;;;5094208;28;20448;-78
2023/09/28 12:33:14;;;;;;;17.40;3.95;;;18.60;99.90;;;;;;5092838;28;20048;-78
2023/09/28 12:35:39;;;;;;;20.73;3.67;;;18.60;99.90;;;;;;5092811;28;20052;-78